In Rescue
 
Open Full Screen Window  High Contrast Mode
Wind Gusting 00 knots
03
November 29, 2022 9:28 AM CST
Weather Information
Wind Direction
  210 °
Wind Speed
  03 kt (3 mph)
Wind Gust
  00 kt (0 mph)
Altimeter
29.66 in
Visibility
10 SM
Temperature
-06° C
21° F
Dewpoint
-09° C
16° F
Humidity
80%
1hr Rain Fall
00.00 in.
24hr Rain Fall
00.00 in.
Sky Condition
Scattered @ 11,000 ft
VFR

METAR KORB 291528Z AUTO 21003KT 10SM SCT110 M06/M09 A2966 RMK AO2

FAA Disclaimer: The data displayed is for advisory purposes only and is not to be used for flight planning or operations.